Time;durP1;ratioP1;P1;durP2;ratioP2;P2;SDS_P1;SDS_P2;PMS_P1;PMS_P2;Temp;Humidity;BMP_temperature;BMP_pressure;BME280_temperature;BME280_humidity;BME280_pressure;Samples;Min_cycle;Max_cycle;Signal;HPM_P1;HPM_P2
2021/07/28 00:01:32;;;;;;;4.82;2.55;;;;;;;35.25;31.17;97970.63;5071350;28;20025;-83
2021/07/28 00:03:58;;;;;;;3.40;2.53;;;;;;;35.20;31.09;97973.44;5069758;28;20077;-82
2021/07/28 00:06:24;;;;;;;3.30;2.72;;;;;;;34.95;32.07;97966.59;5071344;28;20040;-83
2021/07/28 00:08:51;;;;;;;6.03;2.92;;;;;;;34.39;32.60;97982.56;5071626;28;20032;-83
2021/07/28 00:11:18;;;;;;;4.68;3.13;;;;;;;33.27;33.94;97973.41;5068520;28;20369;-83
2021/07/28 00:13:46;;;;;;;3.63;3.10;;;;;;;33.44;34.72;97968.69;5067742;28;20033;-83
2021/07/28 00:16:16;;;;;;;4.68;3.33;;;;;;;33.39;33.71;97977.94;5071943;28;20120;-83
2021/07/28 00:24:13;;;;;;;4.63;3.28;;;;;;;33.34;34.52;97964.41;5071836;28;20579;-82
2021/07/28 00:26:39;;;;;;;2.65;2.30;;;;;;;33.63;34.02;97957.78;5070737;28;20090;-83
2021/07/28 00:29:06;;;;;;;6.55;3.22;;;;;;;33.71;34.07;97964.56;5071183;28;20071;-83
2021/07/28 00:31:32;;;;;;;3.65;3.05;;;;;;;34.30;32.57;97979.91;5064730;28;20044;-83
2021/07/28 00:33:58;;;;;;;2.83;2.47;;;;;;;34.77;31.72;97957.66;5069172;28;20035;-83
2021/07/28 00:36:24;;;;;;;5.20;2.90;;;;;;;34.50;31.85;97951.25;5070410;28;20163;-83
2021/07/28 00:38:50;;;;;;;3.50;3.20;;;;;;;34.16;32.62;97958.03;5071303;28;20029;-83
2021/07/28 00:41:16;;;;;;;3.85;2.35;;;;;;;34.21;32.35;97962.19;5068425;28;20040;-83
2021/07/28 00:43:42;;;;;;;3.35;3.00;;;;;;;33.73;33.54;97953.44;5071203;28;20041;-83
2021/07/28 00:46:08;;;;;;;4.20;2.63;;;;;;;33.90;33.13;97957.25;5066558;28;20496;-83
2021/07/28 00:48:35;;;;;;;3.25;2.50;;;;;;;34.45;32.13;97949.16;5069935;28;20033;-83
2021/07/28 00:51:01;;;;;;;3.55;3.13;;;;;;;34.32;32.51;97945.97;5067819;28;20035;-83
2021/07/28 00:53:28;;;;;;;3.92;3.38;;;;;;;33.64;33.33;97945.09;5067651;28;20044;-83
2021/07/28 00:55:55;;;;;;;4.90;3.13;;;;;;;33.48;34.16;97942.81;5070849;28;20075;-83
2021/07/28 00:58:22;;;;;;;5.32;4.20;;;;;;;33.22;34.31;97939.97;5068309;28;20478;-83
2021/07/28 01:00:48;;;;;;;4.63;3.65;;;;;;;33.12;34.81;97938.53;5073389;28;20530;-83
2021/07/28 01:03:14;;;;;;;3.08;2.78;;;;;;;32.73;35.56;97935.19;5074361;28;20589;-83
2021/07/28 01:05:41;;;;;;;3.90;3.53;;;;;;;32.27;36.24;97931.41;5070397;28;20036;-83
2021/07/28 01:08:08;;;;;;;4.38;3.80;;;;;;;32.36;36.17;97925.59;5068955;28;20032;-83
2021/07/28 01:10:35;;;;;;;3.58;3.15;;;;;;;32.70;35.46;97921.94;5065494;28;20047;-83
2021/07/28 01:13:04;;;;;;;4.10;3.03;;;;;;;33.47;34.06;97924.94;5055201;28;20036;-82
2021/07/28 01:18:08;;;;;;;3.22;2.60;;;;;;;34.00;32.82;97930.16;5074820;28;20563;-83
2021/07/28 01:20:43;;;;;;;5.13;3.70;;;;;;;32.27;35.58;97923.66;5071211;28;20476;-83
2021/07/28 01:23:24;;;;;;;4.88;3.85;;;;;;;31.69;36.77;97926.56;5069398;28;20032;-83
2021/07/28 01:25:52;;;;;;;3.38;3.05;;;;;;;32.68;34.92;97927.34;5073511;28;20029;-83
2021/07/28 01:28:24;;;;;;;6.05;3.20;;;;;;;33.08;33.97;97929.44;5072696;28;20040;-83
2021/07/28 01:31:05;;;;;;;3.35;2.53;;;;;;;33.74;32.72;97932.25;5067128;28;20090;-83
2021/07/28 01:33:40;;;;;;;4.35;3.30;;;;;;;33.79;32.43;97928.66;5071575;28;20036;-83
2021/07/28 01:36:11;;;;;;;2.92;2.50;;;;;;;34.00;32.09;97927.28;5072379;28;20428;-82
2021/07/28 01:38:37;;;;;;;4.50;2.38;;;;;;;34.46;31.68;97924.28;5071924;28;20028;-83
2021/07/28 01:41:05;;;;;;;4.13;2.67;;;;;;;34.05;32.13;97923.75;5071726;28;20097;-82
2021/07/28 01:43:32;;;;;;;5.70;2.40;;;;;;;34.28;31.65;97919.75;5072445;28;20029;-82
2021/07/28 01:45:59;;;;;;;4.00;3.08;;;;;;;33.33;32.77;97912.41;5073117;28;20048;-83
2021/07/28 01:48:26;;;;;;;3.17;2.30;;;;;;;33.41;33.32;97916.38;5072299;28;20071;-83
2021/07/28 01:50:54;;;;;;;2.40;2.20;;;;;;;34.10;31.81;97920.13;5074040;28;20086;-82
2021/07/28 01:53:21;;;;;;;3.72;2.40;;;;;;;34.64;31.08;97918.16;5073185;28;20048;-83
2021/07/28 01:55:48;;;;;;;3.58;2.33;;;;;;;34.65;31.07;97903.41;5072153;28;20111;-83
2021/07/28 01:58:14;;;;;;;2.80;2.60;;;;;;;34.66;30.88;97909.88;5073067;28;20032;-83
2021/07/28 02:00:41;;;;;;;2.83;2.55;;;;;;;34.69;30.84;97909.66;5068537;28;20021;-83
2021/07/28 02:03:07;;;;;;;2.72;2.22;;;;;;;34.59;30.96;97911.16;5072874;28;20024;-83
2021/07/28 02:05:38;;;;;;;6.55;2.72;;;;;;;34.09;31.46;97904.34;5072728;28;20403;-83
2021/07/28 02:08:06;;;;;;;3.53;2.72;;;;;;;33.87;32.09;97910.59;5070602;28;20048;-83
2021/07/28 02:10:37;;;;;;;3.22;2.38;;;;;;;34.23;31.24;97899.75;5072602;28;20031;-83
2021/07/28 02:13:04;;;;;;;3.45;2.63;;;;;;;34.01;31.54;97903.19;5073168;28;20033;-83
2021/07/28 02:15:32;;;;;;;2.95;2.20;;;;;;;34.47;30.69;97897.31;5069762;28;20028;-83
2021/07/28 02:17:59;;;;;;;4.75;2.45;;;;;;;34.14;31.36;97900.75;5071574;28;20036;-83
2021/07/28 02:20:27;;;;;;;5.05;2.25;;;;;;;34.39;30.89;97899.09;5069879;28;20033;-83
2021/07/28 02:22:53;;;;;;;3.72;2.00;;;;;;;34.78;30.31;97899.31;5070888;28;20037;-83
2021/07/28 02:25:20;;;;;;;2.65;1.95;;;;;;;34.72;30.59;97897.22;5073183;28;20091;-83
2021/07/28 02:27:46;;;;;;;4.03;2.15;;;;;;;34.57;30.89;97899.47;5075832;28;20082;-83
2021/07/28 02:30:16;;;;;;;3.15;1.77;;;;;;;34.96;29.89;97893.16;5066118;28;20099;-83
2021/07/28 02:32:42;;;;;;;2.88;2.25;;;;;;;34.91;29.99;97897.56;5070892;28;20035;-83
2021/07/28 02:35:09;;;;;;;2.28;1.98;;;;;;;34.99;29.86;97889.28;5070500;28;20408;-83
2021/07/28 02:37:36;;;;;;;1.52;1.42;;;;;;;35.35;29.36;97889.16;5068342;28;20021;-82
2021/07/28 02:40:02;;;;;;;1.77;1.58;;;;;;;35.41;29.05;97895.66;5063313;28;20481;-83
2021/07/28 02:42:29;;;;;;;2.35;1.80;;;;;;;35.45;29.07;97894.63;5068101;28;20098;-83
2021/07/28 02:44:55;;;;;;;4.00;2.25;;;;;;;35.06;29.44;97897.38;5068329;28;20060;-83
2021/07/28 02:47:21;;;;;;;2.63;2.42;;;;;;;34.18;30.77;97887.03;5073908;28;20063;-83
2021/07/28 02:49:47;;;;;;;2.60;2.35;;;;;;;34.02;31.49;97897.00;5068060;28;20032;-83
2021/07/28 02:52:13;;;;;;;8.50;3.22;;;;;;;33.81;32.07;97909.00;5073202;28;20031;-83
2021/07/28 02:54:39;;;;;;;3.03;2.75;;;;;;;33.01;33.10;97909.94;5063092;28;20506;-83
2021/07/28 02:57:05;;;;;;;2.85;2.55;;;;;;;32.75;34.22;97909.88;5068280;28;20485;-82
2021/07/28 02:59:31;;;;;;;3.28;2.95;;;;;;;31.76;35.91;97909.13;5070623;28;20040;-83
2021/07/28 03:01:57;;;;;;;3.95;2.00;;;;;;;32.99;34.34;97913.28;5066247;28;20035;-83
2021/07/28 03:04:23;;;;;;;3.10;2.53;;;;;;;33.65;32.53;97923.88;5072149;28;20032;-83
2021/07/28 03:06:49;;;;;;;2.10;1.90;;;;;;;34.13;32.17;97921.97;5070871;28;20553;-83
2021/07/28 03:09:15;;;;;;;2.53;2.28;;;;;;;33.19;33.80;97921.81;5070850;28;20404;-83
2021/07/28 03:11:41;;;;;;;2.72;2.28;;;;;;;32.67;34.84;97922.97;5066818;28;20285;-83
2021/07/28 03:14:07;;;;;;;2.35;2.10;;;;;;;33.34;34.64;97921.72;5071874;28;20404;-83
2021/07/28 03:16:33;;;;;;;2.42;2.22;;;;;;;33.27;34.28;97925.81;5063972;28;20437;-83
2021/07/28 03:18:59;;;;;;;4.95;2.13;;;;;;;33.84;33.29;97928.69;5070638;28;20523;-82
2021/07/28 03:21:26;;;;;;;2.10;1.90;;;;;;;34.29;32.74;97927.00;5067082;28;20044;-82
2021/07/28 03:23:52;;;;;;;2.95;2.47;;;;;;;34.48;32.57;97919.63;5068877;28;20060;-83
2021/07/28 03:26:18;;;;;;;2.83;2.28;;;;;;;34.65;32.30;97914.81;5071338;28;20377;-83
2021/07/28 03:28:44;;;;;;;2.00;1.80;;;;;;;34.48;32.56;97913.91;5070408;28;20051;-83
2021/07/28 03:31:10;;;;;;;2.20;1.90;;;;;;;34.71;32.10;97909.91;5071389;28;20020;-83
2021/07/28 03:33:39;;;;;;;3.33;2.13;;;;;;;34.77;32.09;97906.31;5071308;28;20385;-83
2021/07/28 03:36:05;;;;;;;2.15;1.95;;;;;;;34.43;32.57;97903.25;5069724;28;20043;-85
2021/07/28 03:38:31;;;;;;;2.33;1.77;;;;;;;34.11;32.32;97910.31;5070144;28;20036;-85
2021/07/28 03:40:57;;;;;;;5.25;2.05;;;;;;;34.09;33.06;97898.63;5069114;28;20029;-85
2021/07/28 03:43:23;;;;;;;2.85;2.10;;;;;;;33.88;33.07;97906.47;5071436;28;20044;-85
2021/07/28 03:45:50;;;;;;;2.13;1.80;;;;;;;34.00;33.19;97910.19;5068147;28;20048;-85
2021/07/28 03:48:16;;;;;;;2.35;1.75;;;;;;;34.07;32.73;97904.81;5067499;28;20141;-83
2021/07/28 03:50:42;;;;;;;3.47;1.65;;;;;;;34.49;32.10;97897.59;5068268;28;20403;-83
2021/07/28 03:53:08;;;;;;;2.10;1.95;;;;;;;34.69;31.58;97889.69;5071338;28;20043;-83
2021/07/28 03:55:35;;;;;;;2.28;1.67;;;;;;;34.68;31.65;97885.25;5072226;28;20086;-83
2021/07/28 03:58:01;;;;;;;2.00;1.60;;;;;;;34.96;31.00;97896.03;5071385;28;20052;-83
2021/07/28 04:00:27;;;;;;;1.40;1.27;;;;;;;35.21;30.44;97895.09;5070281;28;20033;-83
2021/07/28 04:02:53;;;;;;;2.80;1.90;;;;;;;35.34;30.48;97893.28;5075400;28;20083;-83
2021/07/28 04:05:19;;;;;;;2.55;1.70;;;;;;;34.86;31.22;97900.38;5070545;28;20036;-83
2021/07/28 04:07:46;;;;;;;1.85;1.60;;;;;;;34.35;32.51;97896.47;5068620;28;20035;-83
2021/07/28 04:10:12;;;;;;;3.15;2.03;;;;;;;34.26;32.39;97902.34;5063564;28;20037;-83
2021/07/28 04:12:38;;;;;;;2.20;1.95;;;;;;;34.11;32.12;97892.41;5072515;28;20029;-83
2021/07/28 04:15:05;;;;;;;2.85;1.60;;;;;;;34.63;31.11;97900.31;5071039;28;20033;-85
2021/07/28 04:17:31;;;;;;;1.50;1.40;;;;;;;35.19;30.33;97894.81;5073415;28;20790;-83
2021/07/28 04:19:59;;;;;;;3.58;1.67;;;;;;;35.10;30.58;97903.63;5070299;28;20060;-83
2021/07/28 04:22:26;;;;;;;1.83;1.50;;;;;;;34.63;31.38;97908.84;5067861;28;20021;-85
2021/07/28 04:24:52;;;;;;;2.05;1.73;;;;;;;34.99;30.61;97903.53;5074777;28;20039;-85
2021/07/28 04:27:18;;;;;;;6.28;2.22;;;;;;;34.01;32.06;97900.34;5065175;28;20040;-85
2021/07/28 04:29:44;;;;;;;3.15;2.33;;;;;;;33.31;33.00;97906.44;5072435;28;20094;-85
2021/07/28 04:32:10;;;;;;;2.80;2.10;;;;;;;33.10;34.10;97902.06;5068109;28;20074;-85
2021/07/28 04:34:37;;;;;;;3.83;2.08;;;;;;;34.29;32.52;97898.50;5066130;28;20052;-84
2021/07/28 04:37:03;;;;;;;1.98;1.70;;;;;;;35.09;31.56;97882.06;5067674;28;20032;-82
2021/07/28 04:39:33;;;;;;;1.65;1.55;;;;;;;35.58;31.17;97884.28;5060537;28;20076;-82
2021/07/28 04:41:59;;;;;;;1.60;1.50;;;;;;;35.74;31.09;97879.84;5074801;28;20021;-82
2021/07/28 04:44:25;;;;;;;2.05;1.83;;;;;;;36.21;30.67;97875.19;5071850;28;20119;-82
2021/07/28 04:46:51;;;;;;;2.33;2.13;;;;;;;36.27;30.65;97876.72;5075255;28;20028;-83
2021/07/28 04:49:17;;;;;;;1.70;1.60;;;;;;;36.71;29.64;97875.84;5067925;28;20032;-82
2021/07/28 04:51:43;;;;;;;2.15;1.95;;;;;;;35.72;31.78;97876.75;5073646;28;20681;-82
2021/07/28 04:54:09;;;;;;;1.55;1.30;;;;;;;35.72;32.37;97876.75;5070862;28;20044;-82
2021/07/28 04:56:36;;;;;;;1.75;1.58;;;;;;;36.55;30.51;97865.25;5073222;28;20085;-82
2021/07/28 04:59:02;;;;;;;1.65;1.55;;;;;;;36.77;31.05;97867.22;5070209;28;20489;-82
2021/07/28 05:01:28;;;;;;;2.25;1.60;;;;;;;36.94;29.68;97863.03;5071028;28;20435;-83
2021/07/28 05:03:54;;;;;;;2.92;1.95;;;;;;;37.30;29.44;97867.50;5065005;28;20071;-83
2021/07/28 05:06:20;;;;;;;2.05;1.80;;;;;;;37.49;29.34;97869.75;5070643;28;20499;-82
2021/07/28 05:08:46;;;;;;;2.03;1.83;;;;;;;37.26;29.87;97866.22;5073228;28;20043;-82
2021/07/28 05:11:12;;;;;;;2.42;1.42;;;;;;;37.45;30.16;97858.56;5073606;28;20033;-82
2021/07/28 05:13:38;;;;;;;1.63;1.52;;;;;;;37.67;29.92;97860.50;5069078;28;20028;-82
2021/07/28 05:16:04;;;;;;;2.92;1.88;;;;;;;37.41;29.35;97863.03;5074081;28;20036;-82
2021/07/28 05:18:30;;;;;;;4.20;1.60;;;;;;;37.44;29.21;97851.28;5073145;28;20515;-82
2021/07/28 05:20:57;;;;;;;2.58;1.85;;;;;;;37.73;29.30;97858.34;5072872;28;20036;-82
2021/07/28 05:23:23;;;;;;;2.38;1.35;;;;;;;37.77;29.74;97855.97;5074250;28;20040;-83
2021/07/28 05:25:50;;;;;;;2.45;1.85;;;;;;;38.00;29.21;97865.97;5075292;28;20032;-82
2021/07/28 05:28:16;;;;;;;3.58;1.60;;;;;;;38.10;29.45;97858.56;5073636;28;20047;-82
2021/07/28 05:30:42;;;;;;;1.60;1.50;;;;;;;38.45;28.48;97849.88;5074756;28;20082;-82
2021/07/28 05:33:08;;;;;;;1.30;1.20;;;;;;;38.88;27.98;97849.13;5072912;28;20024;-82
2021/07/28 05:35:34;;;;;;;1.48;1.38;;;;;;;38.86;28.23;97849.66;5074740;28;20408;-82
2021/07/28 05:38:01;;;;;;;1.90;1.25;;;;;;;39.08;27.69;97848.56;5067959;28;20461;-82
2021/07/28 05:40:28;;;;;;;2.15;1.35;;;;;;;39.36;28.13;97854.72;5056085;28;20024;-82
2021/07/28 05:42:54;;;;;;;1.35;1.25;;;;;;;39.64;27.44;97848.56;5065916;28;20043;-82
2021/07/28 05:45:20;;;;;;;1.98;1.30;;;;;;;39.65;27.30;97845.16;5071539;28;20128;-82
2021/07/28 05:47:46;;;;;;;1.60;1.50;;;;;;;38.92;28.62;97844.63;5072443;28;20032;-82
2021/07/28 05:50:16;;;;;;;1.42;1.33;;;;;;;38.22;29.17;97853.50;5074383;28;20036;-82
2021/07/28 05:52:42;;;;;;;1.40;1.17;;;;;;;38.16;29.87;97853.53;5073518;28;20029;-82
2021/07/28 05:55:09;;;;;;;1.95;1.80;;;;;;;37.74;30.31;97854.19;5073018;28;20102;-82
2021/07/28 05:57:35;;;;;;;1.42;1.33;;;;;;;37.74;30.02;97852.09;5074584;28;20033;-82
2021/07/28 06:00:03;;;;;;;1.50;1.40;;;;;;;37.90;29.80;97848.31;5071948;28;20396;-83
2021/07/28 06:02:29;;;;;;;1.70;1.50;;;;;;;38.15;29.27;97852.00;5073978;28;20119;-82
2021/07/28 06:04:55;;;;;;;2.47;1.95;;;;;;;38.93;28.23;97848.28;5072375;28;20043;-82
2021/07/28 06:07:21;;;;;;;1.65;1.55;;;;;;;39.56;26.73;97847.63;5066848;28;20036;-83
2021/07/28 06:09:47;;;;;;;2.72;1.55;;;;;;;40.10;26.30;97842.28;5071143;28;20036;-82
2021/07/28 06:12:17;;;;;;;1.85;1.45;;;;;;;40.25;25.52;97841.75;5063500;28;20033;-82
2021/07/28 06:14:46;;;;;;;3.88;1.88;;;;;;;39.97;26.11;97842.25;5061027;28;20036;-82
2021/07/28 06:17:13;;;;;;;1.92;1.25;;;;;;;40.11;26.87;97851.72;5058966;28;20069;-82
2021/07/28 06:19:42;;;;;;;2.67;2.05;;;;;;;40.30;25.58;97846.66;5059564;28;20025;-82
2021/07/28 06:22:09;;;;;;;1.52;1.27;;;;;;;39.87;26.38;97844.78;5064194;28;20035;-82
2021/07/28 06:24:35;;;;;;;2.28;1.60;;;;;;;38.56;27.29;97848.97;5062670;28;20151;-82
2021/07/28 06:27:03;;;;;;;2.50;1.30;;;;;;;38.08;29.51;97851.81;5057975;28;20033;-82
2021/07/28 06:29:29;;;;;;;1.55;1.40;;;;;;;38.84;27.42;97845.78;5065366;28;20040;-82
2021/07/28 06:31:55;;;;;;;2.88;1.70;;;;;;;39.31;27.25;97844.09;5058499;28;20028;-82
2021/07/28 06:34:21;;;;;;;3.33;1.30;;;;;;;39.21;27.46;97845.81;5065118;28;20059;-83
2021/07/28 06:36:48;;;;;;;2.72;1.75;;;;;;;38.69;29.55;97846.19;5064048;28;20488;-82
2021/07/28 06:39:14;;;;;;;3.15;1.65;;;;;;;38.82;27.89;97843.44;5072031;28;20024;-82
2021/07/28 06:41:40;;;;;;;3.28;1.77;;;;;;;38.36;27.97;97840.84;5063797;28;20476;-82
2021/07/28 06:44:06;;;;;;;1.85;1.50;;;;;;;38.88;28.03;97840.50;5060964;28;20041;-82
2021/07/28 06:46:32;;;;;;;2.03;1.27;;;;;;;39.44;27.06;97841.28;5071281;28;20494;-83
2021/07/28 06:48:58;;;;;;;2.88;1.42;;;;;;;39.54;27.47;97833.03;5075225;28;20033;-82
2021/07/28 06:51:24;;;;;;;2.28;1.33;;;;;;;39.61;26.46;97836.06;5063510;28;20416;-83
2021/07/28 06:53:50;;;;;;;1.98;1.20;;;;;;;39.25;26.94;97829.03;5062219;28;20044;-82
2021/07/28 06:56:16;;;;;;;2.80;1.75;;;;;;;38.10;27.84;97838.50;5058525;28;20396;-82
2021/07/28 06:58:42;;;;;;;2.08;1.90;;;;;;;37.79;29.09;97833.28;5061181;28;20041;-83
2021/07/28 07:01:09;;;;;;;2.65;1.60;;;;;;;38.60;28.71;97826.50;5060302;28;20515;-83
2021/07/28 07:03:35;;;;;;;1.60;1.38;;;;;;;39.34;27.52;97825.78;5059886;28;20530;-82
2021/07/28 07:06:04;;;;;;;2.28;1.58;;;;;;;39.70;26.37;97826.28;5061091;28;20041;-82
2021/07/28 07:08:30;;;;;;;1.58;1.30;;;;;;;40.27;25.66;97834.13;5063187;28;20068;-82
2021/07/28 07:10:57;;;;;;;2.40;1.38;;;;;;;40.52;25.83;97829.72;5062133;28;20032;-82
2021/07/28 07:13:24;;;;;;;1.67;1.55;;;;;;;40.52;26.34;97828.94;5061654;28;20040;-82
2021/07/28 07:15:50;;;;;;;1.42;1.33;;;;;;;40.23;27.24;97824.28;5059789;28;21723;-82
2021/07/28 07:18:19;;;;;;;1.98;1.50;;;;;;;40.15;27.58;97814.75;5063663;28;20040;-82
2021/07/28 07:20:45;;;;;;;2.35;1.42;;;;;;;38.87;27.43;97813.88;5061453;28;20029;-82
2021/07/28 07:23:12;;;;;;;2.60;1.63;;;;;;;39.02;27.92;97814.22;5060936;28;20388;-82
2021/07/28 07:25:38;;;;;;;1.58;1.30;;;;;;;39.31;28.21;97801.78;5067439;28;20111;-82
2021/07/28 07:28:04;;;;;;;2.33;1.45;;;;;;;39.84;28.06;97807.72;5073257;28;20068;-82
2021/07/28 07:30:31;;;;;;;1.48;1.38;;;;;;;40.30;26.24;97803.47;5066394;28;20123;-82
2021/07/28 07:35:41;;;;;;;1.30;1.20;;;;;;;40.27;26.06;97802.47;5072083;28;20088;-82
2021/07/28 07:38:07;;;;;;;1.70;1.20;;;;;;;39.41;27.10;97801.38;5067037;28;20028;-82
2021/07/28 07:40:34;;;;;;;1.98;1.40;;;;;;;39.86;27.21;97794.31;5071098;28;20033;-82
2021/07/28 07:43:05;;;;;;;1.58;1.10;;;;;;;40.49;25.61;97795.53;5071571;28;20028;-82
2021/07/28 07:45:31;;;;;;;2.55;1.38;;;;;;;40.39;25.68;97785.75;5069413;28;20523;-82
2021/07/28 07:47:57;;;;;;;1.20;0.90;;;;;;;40.90;25.73;97781.31;5071405;28;20102;-82
2021/07/28 07:50:23;;;;;;;4.63;1.77;;;;;;;41.40;25.05;97788.81;5071929;28;20059;-82
2021/07/28 07:52:49;;;;;;;1.98;1.45;;;;;;;41.06;23.98;97782.25;5072267;28;20037;-82
2021/07/28 07:55:16;;;;;;;1.67;1.38;;;;;;;40.48;26.50;97780.38;5062906;28;20477;-82
2021/07/28 07:57:42;;;;;;;1.13;1.05;;;;;;;40.44;25.85;97779.16;5069504;28;20055;-82
2021/07/28 08:00:08;;;;;;;2.40;1.27;;;;;;;40.86;25.39;97786.66;5071541;28;20063;-82
2021/07/28 08:02:34;;;;;;;1.70;1.23;;;;;;;41.05;25.05;97781.50;5070012;28;20028;-82
2021/07/28 08:05:00;;;;;;;1.15;1.10;;;;;;;40.93;24.80;97785.97;5072440;28;20039;-82
2021/07/28 08:07:26;;;;;;;2.45;1.23;;;;;;;41.12;26.04;97774.28;5067871;28;20036;-82
2021/07/28 08:09:52;;;;;;;2.75;1.70;;;;;;;40.96;26.18;97781.94;5069503;28;20492;-82
2021/07/28 08:12:18;;;;;;;2.80;1.45;;;;;;;40.58;25.98;97769.16;5073066;28;20089;-82
2021/07/28 08:14:44;;;;;;;1.88;1.25;;;;;;;40.09;26.79;97770.94;5064188;28;20044;-82
2021/07/28 08:17:10;;;;;;;1.20;0.90;;;;;;;40.14;27.16;97767.19;5069785;28;20032;-82
2021/07/28 08:19:36;;;;;;;1.27;1.17;;;;;;;40.43;25.79;97761.09;5068874;28;20392;-82
2021/07/28 08:22:02;;;;;;;1.95;1.27;;;;;;;39.92;25.96;97765.47;5063939;28;20041;-82
2021/07/28 08:24:28;;;;;;;1.77;1.25;;;;;;;40.13;25.83;97772.16;5071155;28;20027;-82
2021/07/28 08:26:54;;;;;;;1.38;1.10;;;;;;;40.19;25.93;97757.66;5061969;28;20040;-82
2021/07/28 08:29:20;;;;;;;2.15;1.20;;;;;;;40.12;25.22;97767.72;5069483;28;20039;-82
2021/07/28 08:31:46;;;;;;;2.30;1.42;;;;;;;40.65;25.72;97756.97;5067159;28;20369;-82
2021/07/28 08:34:13;;;;;;;1.52;1.23;;;;;;;41.09;24.32;97756.00;5067355;28;20550;-82
2021/07/28 08:36:39;;;;;;;3.00;1.33;;;;;;;41.03;24.96;97761.09;5069110;28;20020;-83
2021/07/28 08:39:05;;;;;;;3.10;1.10;;;;;;;40.90;25.28;97757.50;5065671;28;20087;-82
2021/07/28 08:41:37;;;;;;;1.35;1.27;;;;;;;40.32;25.77;97758.44;5070321;28;20496;-82
2021/07/28 08:44:03;;;;;;;2.45;1.20;;;;;;;40.34;26.84;97761.53;5071798;28;20041;-82
2021/07/28 08:46:29;;;;;;;1.73;1.10;;;;;;;39.65;26.75;97761.78;5070299;28;20045;-82
2021/07/28 08:48:55;;;;;;;1.20;1.10;;;;;;;40.40;24.76;97756.41;5077044;28;20036;-82
2021/07/28 08:51:27;;;;;;;2.00;1.10;;;;;;;41.18;23.47;97755.50;5086396;28;20032;-83
2021/07/28 08:53:53;;;;;;;3.42;1.00;;;;;;;41.81;24.26;97762.09;5069628;28;20028;-83
2021/07/28 08:56:22;;;;;;;3.35;1.00;;;;;;;42.27;22.18;97769.75;5071210;28;20032;-83
2021/07/28 08:58:48;;;;;;;1.38;1.05;;;;;;;42.55;21.10;97763.19;5071058;28;20504;-83
2021/07/28 09:01:14;;;;;;;2.67;0.90;;;;;;;42.46;23.21;97764.47;5071770;28;20040;-83
2021/07/28 09:03:40;;;;;;;1.00;0.90;;;;;;;41.74;22.32;97766.47;5069756;28;20040;-83
2021/07/28 09:06:07;;;;;;;1.90;1.20;;;;;;;41.98;22.38;97765.31;5064156;28;20497;-83
2021/07/28 09:08:35;;;;;;;1.10;0.98;;;;;;;41.95;22.05;97760.66;5067658;28;20117;-83
2021/07/28 09:11:06;;;;;;;3.88;1.00;;;;;;;41.18;22.66;97764.16;5057413;28;20048;-83
2021/07/28 09:13:39;;;;;;;1.80;1.00;;;;;;;41.13;22.19;97759.28;5063044;28;20481;-84
2021/07/28 09:16:10;;;;;;;1.45;1.10;;;;;;;40.81;23.31;97757.94;5071457;28;20071;-83
2021/07/28 09:18:38;;;;;;;4.10;1.35;;;;;;;41.02;22.86;97756.69;5073516;28;20079;-85
2021/07/28 09:21:21;;;;;;;2.15;1.13;;;;;;;41.72;22.75;97756.81;5065527;28;20489;-81
2021/07/28 09:24:15;;;;;;;1.92;1.08;;;;;;;42.14;23.40;97757.53;5072922;28;20068;-82
2021/07/28 09:26:53;;;;;;;2.63;1.20;;;;;;;42.38;21.71;97757.13;5069311;28;20052;-82
2021/07/28 09:29:25;;;;;;;2.63;0.88;;;;;;;42.32;23.28;97763.03;5061187;28;20063;-83
2021/07/28 09:32:00;;;;;;;1.00;0.90;;;;;;;42.07;21.37;97766.88;5065894;28;20373;-83
2021/07/28 09:34:26;;;;;;;1.73;1.45;;;;;;;41.01;24.61;97758.00;5075518;28;20380;-83
2021/07/28 09:36:55;;;;;;;2.08;1.05;;;;;;;41.33;23.05;97754.91;5072249;28;20476;-83
2021/07/28 09:39:28;;;;;;;5.15;1.20;;;;;;;41.79;21.14;97756.13;5075000;28;20063;-84
2021/07/28 09:41:56;;;;;;;1.42;0.80;;;;;;;41.79;22.81;97759.78;5065511;28;20029;-83
2021/07/28 09:44:30;;;;;;;2.13;1.13;;;;;;;40.86;21.32;97752.09;5064401;28;20476;-84
2021/07/28 09:47:17;;;;;;;3.83;1.65;;;;;;;40.97;22.01;97753.91;5064966;28;20085;-83
2021/07/28 09:49:48;;;;;;;1.42;1.30;;;;;;;41.02;21.37;97758.78;5065535;28;20031;-81
2021/07/28 09:52:18;;;;;;;1.75;1.02;;;;;;;40.97;22.23;97748.94;5073852;28;20033;-82
2021/07/28 09:54:45;;;;;;;3.67;1.58;;;;;;;41.37;22.03;97751.69;5068224;28;20037;-82
2021/07/28 09:57:19;;;;;;;1.83;1.00;;;;;;;41.26;22.08;97758.47;5073266;28;20035;-82
2021/07/28 10:00:04;;;;;;;1.98;1.27;;;;;;;41.42;20.98;97750.78;5062652;28;20060;-84
2021/07/28 10:02:32;;;;;;;4.72;1.33;;;;;;;41.22;21.84;97752.25;5058820;28;20404;-84
2021/07/28 10:05:00;;;;;;;2.58;1.30;;;;;;;41.07;21.27;97750.03;5071000;28;20114;-83
2021/07/28 10:07:30;;;;;;;4.10;1.30;;;;;;;41.49;21.64;97747.97;5061860;28;20033;-82
2021/07/28 10:10:10;;;;;;;3.45;1.38;;;;;;;41.07;22.73;97741.38;5071656;28;20028;-81
2021/07/28 10:12:41;;;;;;;1.58;1.23;;;;;;;41.61;21.20;97748.44;5063732;28;20021;-82
2021/07/28 10:15:08;;;;;;;1.80;1.05;;;;;;;41.87;20.24;97742.53;5056778;28;20029;-82
2021/07/28 10:17:42;;;;;;;2.67;1.13;;;;;;;42.55;20.77;97737.19;5064972;28;20032;-82
2021/07/28 10:20:13;;;;;;;1.23;0.95;;;;;;;43.09;19.16;97736.84;5059182;28;20037;-82
2021/07/28 10:22:41;;;;;;;1.15;0.80;;;;;;;43.42;19.36;97726.31;5062962;28;20021;-82
2021/07/28 10:25:13;;;;;;;1.20;0.85;;;;;;;43.43;19.86;97721.31;5058140;28;20037;-82
2021/07/28 10:27:41;;;;;;;2.05;1.15;;;;;;;43.53;19.77;97731.72;5070699;28;20485;-83
2021/07/28 10:30:15;;;;;;;3.15;0.90;;;;;;;43.08;19.64;97726.63;5070817;28;20515;-81
2021/07/28 10:32:45;;;;;;;2.42;0.93;;;;;;;43.04;20.11;97728.38;5055242;28;20052;-82
2021/07/28 10:35:17;;;;;;;;;;;;;;;42.90;18.98;97721.19;5064270;28;20035;-82
2021/07/28 10:37:44;;;;;;;1.63;0.80;;;;;;;42.82;20.10;97720.38;5057401;28;20368;-82
2021/07/28 10:40:48;;;;;;;1.63;0.90;;;;;;;41.95;21.52;97723.16;5058908;28;20086;-82
2021/07/28 10:43:14;;;;;;;2.15;1.00;;;;;;;41.03;21.89;97717.13;5036714;28;20074;-81
2021/07/28 10:46:00;;;;;;;2.08;1.35;;;;;;;40.97;21.75;97730.88;5063298;28;20052;-79
2021/07/28 10:48:50;;;;;;;1.45;1.17;;;;;;;42.09;22.39;97730.38;5055216;28;20037;-78
2021/07/28 10:51:49;;;;;;;4.18;1.10;;;;;;;42.37;19.19;97721.69;5064927;28;20559;-79
2021/07/28 10:54:15;;;;;;;2.40;1.70;;;;;;;41.15;20.80;97724.94;5065202;28;20553;-80
2021/07/28 10:57:30;;;;;;;2.15;1.25;;;;;;;41.00;22.74;97729.75;5055846;28;20382;-79
2021/07/28 10:59:56;;;;;;;2.72;1.40;;;;;;;41.02;22.16;97722.09;5063840;28;20036;-80
2021/07/28 11:02:22;;;;;;;1.20;1.10;;;;;;;41.02;21.88;97725.00;5058869;28;20158;-80
2021/07/28 11:05:21;;;;;;;2.53;1.15;;;;;;;40.12;21.31;97715.94;5064811;28;20482;-80
2021/07/28 11:08:02;;;;;;;3.60;1.67;;;;;;;40.08;22.93;97715.50;5065116;28;20028;-79
2021/07/28 11:10:37;;;;;;;2.10;1.33;;;;;;;40.90;21.42;97717.94;5067368;28;20496;-80
2021/07/28 11:13:15;;;;;;;2.58;1.20;;;;;;;40.86;22.35;97716.75;5057866;28;20548;-80
2021/07/28 11:16:01;;;;;;;2.67;1.00;;;;;;;42.02;20.67;97719.53;5063608;28;20086;-79
2021/07/28 11:18:41;;;;;;;1.13;0.90;;;;;;;42.81;21.06;97710.13;5058503;28;20033;-79
2021/07/28 11:21:21;;;;;;;2.08;1.00;;;;;;;42.67;20.12;97712.41;5064262;28;20384;-79
2021/07/28 11:23:59;;;;;;;2.25;1.10;;;;;;;42.93;19.84;97715.03;5055672;28;20568;-80
2021/07/28 11:26:28;;;;;;;1.00;0.90;;;;;;;43.50;19.62;97720.53;5062150;28;20036;-79
2021/07/28 11:28:57;;;;;;;1.20;0.80;;;;;;;44.05;18.93;97721.47;5067700;28;20041;-80
2021/07/28 11:31:26;;;;;;;2.00;1.10;;;;;;;44.65;18.90;97717.66;5056048;28;20033;-80
2021/07/28 11:34:00;;;;;;;2.10;1.02;;;;;;;44.95;17.70;97719.69;5058618;28;20067;-80
2021/07/28 11:36:26;;;;;;;1.95;1.10;;;;;;;44.72;17.28;97722.66;5059655;28;20473;-80
2021/07/28 11:38:52;;;;;;;4.43;1.15;;;;;;;43.86;18.50;97719.00;5058187;28;20405;-79
2021/07/28 11:41:22;;;;;;;2.03;1.00;;;;;;;43.30;20.48;97725.16;5065560;28;20033;-79
2021/07/28 11:43:48;;;;;;;2.10;1.40;;;;;;;42.71;18.84;97724.38;5067855;28;20036;-81
2021/07/28 11:46:16;;;;;;;3.42;0.77;;;;;;;43.08;19.25;97726.63;5061200;28;20464;-79
2021/07/28 11:48:47;;;;;;;3.42;1.30;;;;;;;42.51;19.34;97722.38;5061257;28;20044;-80
2021/07/28 11:51:24;;;;;;;2.65;1.42;;;;;;;42.68;19.55;97713.97;5057972;28;20037;-79